Time;durP1;ratioP1;P1;durP2;ratioP2;P2;SDS_P1;SDS_P2;PMS_P1;PMS_P2;Temp;Humidity;BMP_temperature;BMP_pressure;BME280_temperature;BME280_humidity;BME280_pressure;Samples;Min_cycle;Max_cycle;Signal;HPM_P1;HPM_P2
2023/10/24 00:00:50;;;;;;;30.70;23.40;;;;;;;;;;5161604;27;20160;-82
2023/10/24 00:03:17;;;;;;;33.13;24.15;;;;;;;;;;5160877;27;20521;-81
2023/10/24 00:05:43;;;;;;;31.08;24.27;;;;;;;;;;5143888;27;20046;-82
2023/10/24 00:08:09;;;;;;;29.77;22.85;;;;;;;;;;5180266;27;20057;-81
2023/10/24 00:10:35;;;;;;;30.50;23.08;;;;;;;;;;5179635;27;20054;-82
2023/10/24 00:13:01;;;;;;;38.15;24.20;;;;;;;;;;5180044;27;20126;-82
2023/10/24 00:15:27;;;;;;;32.25;25.15;;;;;;;;;;5179444;27;20508;-83
2023/10/24 00:17:53;;;;;;;29.83;23.58;;;;;;;;;;5179449;27;20048;-84
2023/10/24 00:20:19;;;;;;;33.40;24.33;;;;;;;;;;5161112;27;20054;-85
2023/10/24 00:22:45;;;;;;;35.40;23.27;;;;;;;;;;5161325;27;20074;-85
2023/10/24 00:25:11;;;;;;;27.60;22.08;;;;;;;;;;5143841;27;20057;-85
2023/10/24 00:27:37;;;;;;;34.03;25.58;;;;;;;;;;5161832;27;20170;-85
2023/10/24 00:30:04;;;;;;;31.77;23.52;;;;;;;;;;5161267;27;20417;-85
2023/10/24 00:32:30;;;;;;;32.38;24.67;;;;;;;;;;5179760;27;20046;-85
2023/10/24 00:34:56;;;;;;;29.67;22.85;;;;;;;;;;5180370;27;20046;-85
2023/10/24 00:37:22;;;;;;;32.67;24.88;;;;;;;;;;5180625;27;20046;-85
2023/10/24 00:39:48;;;;;;;38.05;25.20;;;;;;;;;;5144889;27;20087;-85
2023/10/24 00:42:14;;;;;;;29.63;22.20;;;;;;;;;;5163212;27;20090;-85
2023/10/24 00:44:40;;;;;;;26.90;21.30;;;;;;;;;;5161221;27;20038;-83
2023/10/24 00:47:06;;;;;;;29.05;21.65;;;;;;;;;;5161194;27;20385;-84
2023/10/24 00:49:32;;;;;;;31.05;23.33;;;;;;;;;;5179845;27;20042;-84
2023/10/24 00:51:59;;;;;;;32.90;23.98;;;;;;;;;;5160672;27;20057;-84
2023/10/24 00:54:25;;;;;;;30.38;21.45;;;;;;;;;;5160963;27;20161;-86
2023/10/24 00:56:52;;;;;;;31.02;23.23;;;;;;;;;;5161264;27;20245;-85
2023/10/24 00:59:19;;;;;;;29.15;22.60;;;;;;;;;;5161381;27;20043;-86
2023/10/24 01:01:46;;;;;;;36.60;24.05;;;;;;;;;;5160545;27;20075;-85
2023/10/24 01:04:12;;;;;;;29.70;21.90;;;;;;;;;;5161780;27;20046;-85
2023/10/24 01:06:38;;;;;;;29.13;22.73;;;;;;;;;;5179795;27;20043;-84
2023/10/24 01:09:05;;;;;;;28.63;22.83;;;;;;;;;;5161059;27;20038;-84
2023/10/24 01:11:32;;;;;;;31.55;22.42;;;;;;;;;;5179322;27;20054;-84
2023/10/24 01:14:01;;;;;;;39.30;22.45;;;;;;;;;;5179483;27;20121;-83
2023/10/24 01:16:28;;;;;;;29.17;21.42;;;;;;;;;;5160881;27;20430;-83
2023/10/24 01:18:54;;;;;;;46.45;26.02;;;;;;;;;;5160459;27;20077;-83
2023/10/24 01:21:20;;;;;;;29.52;22.65;;;;;;;;;;5144191;27;20042;-83
2023/10/24 01:23:46;;;;;;;26.13;21.17;;;;;;;;;;5160397;27;20039;-83
2023/10/24 01:26:15;;;;;;;32.90;22.75;;;;;;;;;;5160866;27;20378;-82
2023/10/24 01:28:41;;;;;;;28.55;22.00;;;;;;;;;;5178869;27;20484;-83
2023/10/24 01:31:07;;;;;;;29.13;22.25;;;;;;;;;;5178060;27;20098;-83
2023/10/24 01:33:33;;;;;;;29.52;19.63;;;;;;;;;;5142310;27;20045;-83
2023/10/24 01:35:59;;;;;;;27.08;22.10;;;;;;;;;;5159767;27;20042;-82
2023/10/24 01:38:26;;;;;;;36.15;23.90;;;;;;;;;;5159420;27;20042;-83
2023/10/24 01:40:52;;;;;;;26.08;21.38;;;;;;;;;;5177760;27;20046;-83
2023/10/24 01:43:18;;;;;;;28.52;21.60;;;;;;;;;;5159291;27;20053;-82
2023/10/24 01:45:44;;;;;;;26.95;22.48;;;;;;;;;;5177941;27;20038;-83
2023/10/24 01:48:10;;;;;;;25.70;20.13;;;;;;;;;;5159709;27;20042;-82
2023/10/24 01:50:36;;;;;;;27.27;22.33;;;;;;;;;;5178157;27;20102;-82
2023/10/24 01:53:02;;;;;;;30.88;23.15;;;;;;;;;;5159003;27;20046;-82
2023/10/24 01:55:29;;;;;;;27.08;22.30;;;;;;;;;;5177520;27;20049;-83
2023/10/24 01:57:55;;;;;;;26.08;21.90;;;;;;;;;;5159137;27;20042;-82
2023/10/24 02:00:21;;;;;;;29.70;21.05;;;;;;;;;;5159810;27;20129;-81
2023/10/24 02:02:47;;;;;;;26.90;21.73;;;;;;;;;;5124776;27;20081;-81
2023/10/24 02:05:14;;;;;;;30.08;20.95;;;;;;;;;;5141397;27;20131;-81
2023/10/24 02:07:40;;;;;;;31.52;22.75;;;;;;;;;;5158994;27;20457;-81
2023/10/24 02:10:06;;;;;;;27.10;21.40;;;;;;;;;;5158865;27;20046;-81
2023/10/24 02:12:34;;;;;;;25.75;21.13;;;;;;;;;;5158219;27;20049;-81
2023/10/24 02:15:00;;;;;;;29.95;22.23;;;;;;;;;;5158971;27;20046;-82
2023/10/24 02:17:26;;;;;;;30.92;22.33;;;;;;;;;;5158632;27;20086;-83
2023/10/24 02:19:53;;;;;;;29.55;21.20;;;;;;;;;;5177122;27;20149;-82
2023/10/24 02:22:19;;;;;;;34.35;23.02;;;;;;;;;;5158621;27;20050;-83
2023/10/24 02:24:45;;;;;;;40.70;24.92;;;;;;;;;;5177389;27;20047;-83
2023/10/24 02:27:11;;;;;;;32.55;22.73;;;;;;;;;;5158722;27;20038;-83
2023/10/24 02:29:37;;;;;;;25.95;22.42;;;;;;;;;;5177173;27;20092;-83
2023/10/24 02:32:03;;;;;;;29.95;23.05;;;;;;;;;;5158463;27;20534;-83
2023/10/24 02:34:30;;;;;;;27.48;22.33;;;;;;;;;;5177845;27;20046;-83
2023/10/24 02:36:56;;;;;;;30.50;22.50;;;;;;;;;;5159232;27;20050;-84
2023/10/24 02:39:22;;;;;;;35.25;24.77;;;;;;;;;;5159222;27;20042;-84
2023/10/24 02:41:48;;;;;;;31.17;22.77;;;;;;;;;;5178884;27;20046;-85
2023/10/24 02:44:14;;;;;;;33.83;22.05;;;;;;;;;;5177586;27;20049;-85
2023/10/24 02:46:40;;;;;;;31.17;22.40;;;;;;;;;;5141300;27;20050;-85
2023/10/24 02:49:06;;;;;;;27.45;21.58;;;;;;;;;;5176851;27;20038;-85
2023/10/24 02:51:32;;;;;;;26.80;21.40;;;;;;;;;;5142583;27;20093;-85
2023/10/24 02:53:58;;;;;;;30.10;21.75;;;;;;;;;;5178072;27;20125;-85
2023/10/24 02:56:25;;;;;;;29.02;20.73;;;;;;;;;;5158571;27;20045;-84
2023/10/24 02:58:51;;;;;;;34.97;23.83;;;;;;;;;;5142168;27;20042;-85
2023/10/24 03:01:17;;;;;;;34.08;22.55;;;;;;;;;;5141349;27;20054;-84
2023/10/24 03:03:43;;;;;;;31.10;22.45;;;;;;;;;;5177587;27;20046;-84
2023/10/24 03:06:14;;;;;;;29.83;22.92;;;;;;;;;;5177435;27;20123;-84
2023/10/24 03:08:40;;;;;;;28.52;22.25;;;;;;;;;;5158776;27;20046;-83
2023/10/24 03:11:06;;;;;;;30.35;23.25;;;;;;;;;;5123982;27;20057;-84
2023/10/24 03:13:32;;;;;;;30.63;23.10;;;;;;;;;;5176130;27;20035;-84
2023/10/24 03:16:02;;;;;;;30.35;22.88;;;;;;;;;;5157621;27;20059;-84
2023/10/24 03:18:30;;;;;;;26.75;20.73;;;;;;;;;;5176154;27;20093;-83
2023/10/24 03:20:56;;;;;;;27.38;22.05;;;;;;;;;;5140648;27;20042;-83
2023/10/24 03:23:22;;;;;;;24.33;20.73;;;;;;;;;;5157738;27;20050;-83
2023/10/24 03:25:50;;;;;;;23.85;19.63;;;;;;;;;;5143897;27;20046;-84
2023/10/24 03:28:16;;;;;;;21.02;18.75;;;;;;;;;;5161991;27;20050;-83
2023/10/24 03:30:43;;;;;;;25.90;20.95;;;;;;;;;;5144701;27;20046;-83
2023/10/24 03:33:09;;;;;;;25.42;20.83;;;;;;;;;;5161627;27;20442;-83
2023/10/24 03:35:35;;;;;;;27.15;20.58;;;;;;;;;;5144581;27;20057;-83
2023/10/24 03:38:01;;;;;;;24.02;18.80;;;;;;;;;;5180205;27;20042;-83
2023/10/24 03:40:27;;;;;;;29.50;20.70;;;;;;;;;;5180675;27;20456;-83
2023/10/24 03:42:54;;;;;;;25.88;20.45;;;;;;;;;;5161564;27;20045;-83
2023/10/24 03:45:20;;;;;;;25.23;20.48;;;;;;;;;;5162433;27;20085;-83
2023/10/24 03:47:48;;;;;;;24.20;19.73;;;;;;;;;;5161817;27;20046;-83
2023/10/24 03:50:14;;;;;;;21.95;19.65;;;;;;;;;;5144984;27;20046;-83
2023/10/24 03:52:40;;;;;;;26.98;21.58;;;;;;;;;;5179658;27;20142;-83
2023/10/24 03:55:07;;;;;;;21.33;18.60;;;;;;;;;;5144138;27;20057;-82
2023/10/24 03:57:33;;;;;;;25.88;19.63;;;;;;;;;;5144038;27;20046;-83
2023/10/24 04:00:00;;;;;;;24.85;19.73;;;;;;;;;;5161333;27;20082;-83
2023/10/24 04:02:26;;;;;;;21.88;19.58;;;;;;;;;;5179742;27;20046;-82
2023/10/24 04:04:52;;;;;;;18.30;16.38;;;;;;;;;;5144700;27;20042;-83
2023/10/24 04:07:19;;;;;;;22.42;18.85;;;;;;;;;;5179327;27;20097;-82
2023/10/24 04:09:45;;;;;;;15.13;13.63;;;;;;;;;;5161069;27;20042;-81
2023/10/24 04:12:11;;;;;;;14.82;12.73;;;;;;;;;;5161012;27;20130;-81
2023/10/24 04:14:37;;;;;;;14.85;13.50;;;;;;;;;;5179187;27;20528;-81
2023/10/24 04:17:04;;;;;;;13.35;12.05;;;;;;;;;;5179368;27;20049;-82
2023/10/24 04:19:30;;;;;;;15.10;13.30;;;;;;;;;;5160743;27;20046;-81
2023/10/24 04:21:56;;;;;;;15.32;13.32;;;;;;;;;;5161263;27;20121;-81
2023/10/24 04:24:22;;;;;;;13.40;12.20;;;;;;;;;;5143598;27;20046;-81
2023/10/24 04:26:48;;;;;;;13.73;11.95;;;;;;;;;;5179771;27;20042;-82
2023/10/24 04:29:15;;;;;;;10.52;9.57;;;;;;;;;;5178833;27;20046;-82
2023/10/24 04:31:41;;;;;;;9.85;8.85;;;;;;;;;;5160529;27;20097;-81
2023/10/24 04:34:07;;;;;;;9.60;8.73;;;;;;;;;;5160687;27;20046;-81
2023/10/24 04:36:33;;;;;;;9.95;7.85;;;;;;;;;;5160556;27;20046;-81
2023/10/24 04:38:59;;;;;;;11.23;10.05;;;;;;;;;;5161136;27;20565;-81
2023/10/24 04:41:26;;;;;;;10.13;8.73;;;;;;;;;;5161377;27;20038;-81
2023/10/24 04:43:52;;;;;;;10.35;9.38;;;;;;;;;;5142865;27;20045;-81
2023/10/24 04:46:18;;;;;;;10.65;9.55;;;;;;;;;;5178823;27;20393;-81
2023/10/24 04:48:44;;;;;;;12.45;11.35;;;;;;;;;;5160428;27;20144;-81
2023/10/24 04:51:11;;;;;;;12.40;11.10;;;;;;;;;;5178749;27;20042;-81
2023/10/24 04:53:52;;;;;;;9.90;9.05;;;;;;;;;;5132656;27;20054;-82
2023/10/24 04:56:18;;;;;;;11.68;9.52;;;;;;;;;;5178675;27;20058;-81
2023/10/24 04:58:44;;;;;;;9.88;9.07;;;;;;;;;;5143768;27;20052;-81
2023/10/24 05:01:10;;;;;;;10.10;9.10;;;;;;;;;;5160167;27;20053;-81
2023/10/24 05:03:38;;;;;;;11.77;10.68;;;;;;;;;;5159721;27;20581;-81
2023/10/24 05:06:05;;;;;;;11.52;9.77;;;;;;;;;;5159841;27;20050;-81
2023/10/24 05:08:31;;;;;;;10.60;9.68;;;;;;;;;;5160856;27;20053;-81
2023/10/24 05:10:57;;;;;;;11.40;10.35;;;;;;;;;;5159753;27;20050;-81
2023/10/24 05:13:23;;;;;;;13.02;10.60;;;;;;;;;;5160513;27;20038;-81
2023/10/24 05:15:49;;;;;;;12.05;10.27;;;;;;;;;;5142619;27;20565;-81
2023/10/24 05:18:15;;;;;;;10.60;9.45;;;;;;;;;;5159906;27;20359;-81
2023/10/24 05:20:41;;;;;;;12.98;9.55;;;;;;;;;;5142509;27;20111;-81
2023/10/24 05:23:08;;;;;;;10.25;9.23;;;;;;;;;;5160074;27;20103;-82
2023/10/24 05:25:34;;;;;;;10.43;9.40;;;;;;;;;;5143328;27;20042;-81
2023/10/24 05:28:00;;;;;;;10.70;9.73;;;;;;;;;;5159890;27;20133;-81
2023/10/24 05:30:26;;;;;;;9.50;8.60;;;;;;;;;;5159674;27;20136;-81
2023/10/24 05:32:52;;;;;;;11.02;9.95;;;;;;;;;;5160214;27;20378;-81
2023/10/24 05:35:19;;;;;;;9.88;8.95;;;;;;;;;;5159323;27;20046;-81
2023/10/24 05:37:45;;;;;;;10.55;9.65;;;;;;;;;;5160270;27;20363;-81
2023/10/24 05:40:11;;;;;;;10.90;9.73;;;;;;;;;;5158951;27;20136;-81
2023/10/24 05:42:37;;;;;;;9.48;8.52;;;;;;;;;;5160181;27;20082;-81
2023/10/24 05:45:04;;;;;;;10.00;9.00;;;;;;;;;;5159204;27;20039;-81
2023/10/24 05:47:30;;;;;;;10.85;9.88;;;;;;;;;;5158908;27;20382;-81
2023/10/24 05:49:56;;;;;;;10.80;9.73;;;;;;;;;;5177535;27;20049;-82
2023/10/24 05:52:22;;;;;;;9.82;9.02;;;;;;;;;;5158581;27;20053;-81
2023/10/24 05:54:48;;;;;;;11.52;10.32;;;;;;;;;;5159325;27;20046;-81
2023/10/24 05:57:14;;;;;;;10.32;9.18;;;;;;;;;;5158964;27;20089;-81
2023/10/24 05:59:41;;;;;;;10.93;9.77;;;;;;;;;;5141773;27;20397;-81
2023/10/24 06:02:07;;;;;;;10.40;9.50;;;;;;;;;;5141645;27;20038;-81
2023/10/24 06:04:34;;;;;;;11.75;10.02;;;;;;;;;;5159797;27;20418;-81
2023/10/24 06:07:00;;;;;;;9.32;8.55;;;;;;;;;;5177335;27;20046;-80
2023/10/24 06:09:26;;;;;;;10.27;9.30;;;;;;;;;;5158841;27;20034;-80
2023/10/24 06:11:52;;;;;;;9.65;8.75;;;;;;;;;;5177652;27;20381;-81
2023/10/24 06:14:19;;;;;;;9.27;8.32;;;;;;;;;;5158681;27;20042;-80
2023/10/24 06:16:45;;;;;;;8.45;7.85;;;;;;;;;;5141595;27;20046;-81
2023/10/24 06:19:11;;;;;;;7.75;6.88;;;;;;;;;;5158975;27;20040;-80
2023/10/24 06:21:38;;;;;;;8.13;7.30;;;;;;;;;;5158421;27;20054;-81
2023/10/24 06:24:04;;;;;;;7.95;7.32;;;;;;;;;;5158595;27;20053;-80
2023/10/24 06:26:30;;;;;;;8.60;7.80;;;;;;;;;;5176937;27;20042;-80
2023/10/24 06:28:56;;;;;;;6.50;5.97;;;;;;;;;;5176929;27;20105;-80
2023/10/24 06:31:22;;;;;;;7.35;6.63;;;;;;;;;;5159211;27;20042;-80
2023/10/24 06:33:48;;;;;;;7.35;6.75;;;;;;;;;;5158202;27;20046;-80
2023/10/24 06:36:14;;;;;;;7.78;7.07;;;;;;;;;;5140871;27;20098;-80
2023/10/24 06:38:40;;;;;;;9.38;7.53;;;;;;;;;;5176801;27;20465;-80
2023/10/24 06:41:10;;;;;;;9.45;7.30;;;;;;;;;;5158428;27;20062;-80
2023/10/24 06:43:36;;;;;;;7.78;7.07;;;;;;;;;;5176665;27;20042;-80
2023/10/24 06:46:05;;;;;;;8.23;7.43;;;;;;;;;;5158147;27;20042;-80
2023/10/24 06:48:32;;;;;;;8.10;7.40;;;;;;;;;;5157943;27;20042;-80
2023/10/24 06:50:58;;;;;;;8.57;7.85;;;;;;;;;;5157761;27;20089;-80
2023/10/24 06:53:25;;;;;;;8.23;7.53;;;;;;;;;;5157815;27;20405;-80
2023/10/24 06:55:51;;;;;;;8.30;7.28;;;;;;;;;;5157928;27;20046;-81
2023/10/24 06:58:17;;;;;;;8.73;7.93;;;;;;;;;;5157465;27;20134;-81
2023/10/24 07:00:44;;;;;;;8.85;7.78;;;;;;;;;;5175702;27;20486;-80
2023/10/24 07:03:10;;;;;;;8.27;7.60;;;;;;;;;;5176865;27;20044;-79
2023/10/24 07:05:36;;;;;;;8.45;7.72;;;;;;;;;;5140684;27;20049;-80
2023/10/24 07:08:03;;;;;;;8.18;7.53;;;;;;;;;;5157920;27;20045;-79
2023/10/24 07:10:31;;;;;;;8.25;7.55;;;;;;;;;;5140914;27;20046;-79
2023/10/24 07:12:57;;;;;;;8.30;7.63;;;;;;;;;;5140314;27;20073;-79
2023/10/24 07:15:23;;;;;;;8.98;8.07;;;;;;;;;;5176215;27;20482;-79
2023/10/24 07:17:49;;;;;;;9.15;8.38;;;;;;;;;;5157619;27;20381;-79
2023/10/24 07:20:15;;;;;;;8.77;8.07;;;;;;;;;;5176207;27;20079;-79
2023/10/24 07:22:41;;;;;;;8.48;7.68;;;;;;;;;;5176217;27;20042;-80
2023/10/24 07:25:08;;;;;;;8.75;8.13;;;;;;;;;;5157678;27;20081;-79
2023/10/24 07:27:34;;;;;;;8.30;7.60;;;;;;;;;;5158608;27;20046;-79
2023/10/24 07:30:00;;;;;;;8.98;8.13;;;;;;;;;;5157779;27;20390;-78
2023/10/24 07:32:26;;;;;;;8.88;8.00;;;;;;;;;;5176802;27;20038;-79
2023/10/24 07:34:55;;;;;;;8.90;8.07;;;;;;;;;;5158008;27;20046;-79
2023/10/24 07:37:22;;;;;;;7.78;7.18;;;;;;;;;;5141066;27;20038;-79
2023/10/24 07:39:49;;;;;;;9.18;8.38;;;;;;;;;;5157408;27;20042;-79
2023/10/24 07:42:15;;;;;;;9.90;8.90;;;;;;;;;;5176017;27;20482;-79
2023/10/24 07:44:41;;;;;;;9.05;8.18;;;;;;;;;;5175955;27;20129;-79
2023/10/24 07:47:07;;;;;;;10.32;9.43;;;;;;;;;;5157487;27;20509;-79
2023/10/24 07:49:36;;;;;;;9.23;8.32;;;;;;;;;;5157246;27;20046;-79
2023/10/24 07:52:03;;;;;;;9.10;8.20;;;;;;;;;;5157119;27;20054;-79
2023/10/24 07:54:30;;;;;;;9.30;8.38;;;;;;;;;;5136322;27;20054;-79
2023/10/24 07:56:56;;;;;;;9.70;8.68;;;;;;;;;;5154002;27;20103;-79
2023/10/24 07:59:22;;;;;;;11.25;10.05;;;;;;;;;;5154293;27;20043;-79
2023/10/24 08:01:49;;;;;;;11.10;10.20;;;;;;;;;;5155367;27;20132;-79
2023/10/24 08:04:15;;;;;;;14.07;10.75;;;;;;;;;;5137691;27;20466;-79
2023/10/24 08:06:41;;;;;;;11.10;9.70;;;;;;;;;;5154805;27;20039;-79
2023/10/24 08:09:07;;;;;;;11.98;10.75;;;;;;;;;;5136648;27;20146;-79
2023/10/24 08:11:33;;;;;;;10.23;9.18;;;;;;;;;;5156482;27;20080;-79
2023/10/24 08:13:59;;;;;;;11.77;10.57;;;;;;;;;;5157410;27;20112;-79
2023/10/24 08:16:25;;;;;;;12.88;11.60;;;;;;;;;;5158033;27;20078;-79
2023/10/24 08:18:51;;;;;;;11.05;9.48;;;;;;;;;;5157680;27;20046;-79
2023/10/24 08:21:18;;;;;;;11.05;10.05;;;;;;;;;;5158512;27;20062;-78
2023/10/24 08:23:44;;;;;;;11.38;10.27;;;;;;;;;;5158163;27;20047;-79
2023/10/24 08:26:10;;;;;;;11.55;10.35;;;;;;;;;;5159064;27;20050;-79
2023/10/24 08:28:36;;;;;;;10.70;9.80;;;;;;;;;;5157516;27;20103;-79
2023/10/24 08:31:02;;;;;;;9.85;9.05;;;;;;;;;;5140075;27;20398;-79
2023/10/24 08:33:28;;;;;;;10.05;9.05;;;;;;;;;;5157189;27;20051;-79
2023/10/24 08:35:55;;;;;;;10.82;9.82;;;;;;;;;;5158307;27;20086;-79
2023/10/24 08:38:22;;;;;;;9.15;8.27;;;;;;;;;;5157329;27;20078;-79
2023/10/24 08:40:48;;;;;;;11.80;9.43;;;;;;;;;;5140112;27;20057;-79
2023/10/24 08:43:17;;;;;;;10.07;9.23;;;;;;;;;;5157234;27;20179;-79
2023/10/24 08:45:43;;;;;;;9.98;8.98;;;;;;;;;;5140268;27;20516;-80
2023/10/24 08:48:10;;;;;;;8.15;7.53;;;;;;;;;;5140569;27;20095;-78
2023/10/24 08:50:36;;;;;;;9.60;8.70;;;;;;;;;;5158046;27;20047;-79
2023/10/24 08:53:02;;;;;;;10.50;9.60;;;;;;;;;;5157191;27;20059;-79
2023/10/24 08:55:29;;;;;;;9.80;8.93;;;;;;;;;;5156932;27;20058;-79
2023/10/24 08:57:58;;;;;;;9.63;8.82;;;;;;;;;;5157739;27;20050;-78
2023/10/24 09:00:24;;;;;;;8.88;8.18;;;;;;;;;;5156854;27;20053;-78
2023/10/24 09:02:50;;;;;;;7.93;7.25;;;;;;;;;;5158012;27;20043;-79
2023/10/24 09:05:17;;;;;;;7.30;6.72;;;;;;;;;;5156808;27;20055;-79
2023/10/24 09:07:43;;;;;;;7.30;6.80;;;;;;;;;;5156572;27;20088;-79
2023/10/24 09:10:09;;;;;;;6.70;6.25;;;;;;;;;;5158497;27;20050;-78
2023/10/24 09:12:38;;;;;;;6.57;6.10;;;;;;;;;;5156570;27;20043;-78
2023/10/24 09:15:07;;;;;;;6.43;5.93;;;;;;;;;;5156604;27;20050;-78
2023/10/24 09:17:33;;;;;;;6.50;5.85;;;;;;;;;;5157142;27;20506;-79
2023/10/24 09:19:59;;;;;;;6.40;5.80;;;;;;;;;;5156449;27;20034;-79
2023/10/24 09:22:31;;;;;;;5.82;5.25;;;;;;;;;;5156068;27;20565;-78
2023/10/24 09:24:58;;;;;;;5.75;5.25;;;;;;;;;;5157257;27;20090;-78
2023/10/24 09:27:24;;;;;;;6.03;5.63;;;;;;;;;;5156409;27;20115;-78
2023/10/24 09:29:51;;;;;;;5.88;5.47;;;;;;;;;;5157048;27;20551;-78
2023/10/24 09:32:17;;;;;;;6.10;5.70;;;;;;;;;;5157166;27;20042;-78
2023/10/24 09:34:44;;;;;;;6.47;6.05;;;;;;;;;;5156177;27;20481;-78
2023/10/24 09:37:13;;;;;;;6.05;5.45;;;;;;;;;;5155961;27;20038;-78
2023/10/24 09:39:58;;;;;;;5.57;5.18;;;;;;;;;;5156060;27;20471;-78
2023/10/24 09:42:32;;;;;;;5.75;5.35;;;;;;;;;;5156939;27;20039;-78
2023/10/24 09:44:59;;;;;;;5.65;5.25;;;;;;;;;;5157004;27;20042;-79
2023/10/24 09:47:28;;;;;;;6.15;5.60;;;;;;;;;;5157397;27;20047;-79
2023/10/24 09:49:55;;;;;;;5.78;5.28;;;;;;;;;;5155539;27;20047;-79
2023/10/24 09:52:23;;;;;;;5.22;4.82;;;;;;;;;;5156969;27;20110;-78
2023/10/24 09:54:50;;;;;;;5.55;5.10;;;;;;;;;;5159970;27;20411;-78
2023/10/24 09:57:23;;;;;;;5.95;5.55;;;;;;;;;;5159197;27;20100;-79
2023/10/24 09:59:55;;;;;;;5.32;4.93;;;;;;;;;;5160012;27;20422;-78
2023/10/24 10:02:23;;;;;;;5.57;5.18;;;;;;;;;;5159897;27;20065;-79
2023/10/24 10:04:50;;;;;;;6.63;5.63;;;;;;;;;;5178167;27;20355;-78
2023/10/24 10:07:16;;;;;;;5.45;5.15;;;;;;;;;;5158913;27;20057;-78
2023/10/24 10:09:43;;;;;;;5.72;5.22;;;;;;;;;;5177316;27;20127;-79
2023/10/24 10:12:13;;;;;;;5.80;5.32;;;;;;;;;;5158227;27;20382;-78
2023/10/24 10:14:48;;;;;;;5.47;5.07;;;;;;;;;;5177077;27;20049;-79
2023/10/24 10:17:25;;;;;;;5.60;5.20;;;;;;;;;;5158462;27;20045;-79
2023/10/24 10:19:59;;;;;;;6.20;5.63;;;;;;;;;;5177355;27;20038;-78
2023/10/24 10:22:29;;;;;;;6.72;6.20;;;;;;;;;;5158580;27;20081;-79
2023/10/24 10:25:05;;;;;;;6.22;5.72;;;;;;;;;;5177038;27;20151;-79
2023/10/24 10:27:50;;;;;;;5.97;5.57;;;;;;;;;;5177239;27;20078;-79
2023/10/24 10:30:35;;;;;;;6.82;6.32;;;;;;;;;;5141163;27;20382;-79
2023/10/24 10:33:04;;;;;;;6.50;6.00;;;;;;;;;;5158119;27;20045;-79
2023/10/24 10:35:49;;;;;;;5.75;5.35;;;;;;;;;;5158304;27;20092;-79
2023/10/24 10:38:34;;;;;;;7.45;6.85;;;;;;;;;;5158681;27;20039;-79
2023/10/24 10:41:19;;;;;;;7.53;6.72;;;;;;;;;;5158262;27;20061;-79
2023/10/24 10:43:45;;;;;;;8.35;7.65;;;;;;;;;;5158001;27;20107;-79
2023/10/24 10:46:19;;;;;;;7.75;7.15;;;;;;;;;;5157731;27;20471;-79
2023/10/24 10:48:45;;;;;;;8.10;7.40;;;;;;;;;;5140582;27;20050;-79
2023/10/24 10:51:16;;;;;;;9.68;8.80;;;;;;;;;;5159012;27;20038;-79
2023/10/24 10:53:48;;;;;;;10.38;8.98;;;;;;;;;;5157800;27;20053;-78
2023/10/24 10:56:14;;;;;;;11.10;9.25;;;;;;;;;;5177328;27;20118;-78
2023/10/24 10:58:41;;;;;;;8.77;8.07;;;;;;;;;;5157995;27;20042;-78
2023/10/24 11:01:18;;;;;;;10.25;9.35;;;;;;;;;;5176386;27;20162;-78
2023/10/24 11:03:45;;;;;;;10.15;9.15;;;;;;;;;;5177219;27;20171;-79
2023/10/24 11:06:16;;;;;;;10.07;9.07;;;;;;;;;;5140887;27;20050;-78
2023/10/24 11:09:06;;;;;;;10.50;9.50;;;;;;;;;;5158731;27;20105;-79
2023/10/24 11:11:32;;;;;;;10.32;9.43;;;;;;;;;;5158735;27;20113;-79
2023/10/24 11:14:19;;;;;;;11.65;10.57;;;;;;;;;;5157903;27;20185;-79
2023/10/24 11:16:48;;;;;;;10.52;9.70;;;;;;;;;;5158260;27;20042;-78
2023/10/24 11:19:21;;;;;;;11.50;10.38;;;;;;;;;;5140344;27;20046;-79
2023/10/24 11:21:51;;;;;;;10.60;9.77;;;;;;;;;;5158580;27;20049;-79
2023/10/24 11:24:20;;;;;;;10.70;9.90;;;;;;;;;;5157960;27;20429;-78
2023/10/24 11:26:46;;;;;;;9.57;8.75;;;;;;;;;;5158584;27;20047;-79
2023/10/24 11:29:15;;;;;;;9.85;9.07;;;;;;;;;;5157782;27;20478;-79
2023/10/24 11:31:47;;;;;;;9.38;8.50;;;;;;;;;;5176115;27;20054;-79
2023/10/24 11:34:13;;;;;;;10.30;9.32;;;;;;;;;;5157343;27;20094;-79
2023/10/24 11:36:43;;;;;;;9.93;9.13;;;;;;;;;;5176121;27;20386;-79
2023/10/24 11:39:13;;;;;;;9.65;8.88;;;;;;;;;;5157877;27;20129;-79
2023/10/24 11:41:40;;;;;;;9.45;8.65;;;;;;;;;;5140376;27;20042;-79
2023/10/24 11:44:07;;;;;;;9.85;8.60;;;;;;;;;;5176767;27;20045;-79
2023/10/24 11:46:33;;;;;;;9.90;9.10;;;;;;;;;;5160310;27;20453;-79
2023/10/24 11:48:59;;;;;;;9.13;8.27;;;;;;;;;;5144447;27;20078;-79
2023/10/24 11:51:27;;;;;;;9.25;8.45;;;;;;;;;;5161726;27;20049;-79
2023/10/24 11:54:06;;;;;;;9.25;8.43;;;;;;;;;;5180327;27;20054;-79
2023/10/24 11:56:33;;;;;;;9.40;8.60;;;;;;;;;;5161538;27;20051;-79
2023/10/24 11:58:59;;;;;;;10.05;9.25;;;;;;;;;;5161522;27;20457;-79
2023/10/24 12:01:28;;;;;;;9.82;8.88;;;;;;;;;;5161137;27;20086;-79
2023/10/24 12:03:58;;;;;;;7.95;7.35;;;;;;;;;;5161394;27;20054;-78
2023/10/24 12:06:26;;;;;;;8.68;7.88;;;;;;;;;;5179859;27;20086;-79
2023/10/24 12:08:52;;;;;;;8.25;7.65;;;;;;;;;;5180268;27;20050;-79
2023/10/24 12:11:18;;;;;;;8.80;8.10;;;;;;;;;;5161286;27;20047;-79
2023/10/24 12:13:45;;;;;;;9.02;8.30;;;;;;;;;;5179623;27;20038;-79
2023/10/24 12:16:11;;;;;;;8.75;7.95;;;;;;;;;;5161087;27;20053;-79
2023/10/24 12:18:38;;;;;;;8.82;8.07;;;;;;;;;;5180645;27;20054;-79
2023/10/24 12:21:04;;;;;;;9.35;8.65;;;;;;;;;;5161031;27;20061;-79
2023/10/24 12:23:31;;;;;;;9.20;8.35;;;;;;;;;;5161870;27;20046;-79
2023/10/24 12:25:57;;;;;;;9.77;8.90;;;;;;;;;;5161881;27;20057;-79
2023/10/24 12:28:23;;;;;;;8.85;8.25;;;;;;;;;;5179856;27;20083;-79
2023/10/24 12:30:49;;;;;;;10.25;9.43;;;;;;;;;;5161794;27;20081;-79
2023/10/24 12:33:15;;;;;;;10.02;9.00;;;;;;;;;;5160414;27;20049;-79
2023/10/24 12:35:41;;;;;;;9.68;8.88;;;;;;;;;;5160330;27;20489;-79
2023/10/24 12:38:07;;;;;;;9.77;8.95;;;;;;;;;;5179004;27;20129;-79
2023/10/24 12:40:33;;;;;;;10.10;9.20;;;;;;;;;;5160717;27;20046;-79
2023/10/24 12:42:59;;;;;;;10.77;9.70;;;;;;;;;;5160542;27;20042;-79
2023/10/24 12:45:25;;;;;;;9.02;8.32;;;;;;;;;;5160439;27;20081;-79
2023/10/24 12:47:53;;;;;;;9.25;8.45;;;;;;;;;;5160541;27;20046;-79
2023/10/24 12:50:19;;;;;;;9.13;8.30;;;;;;;;;;5160440;27;20396;-79
2023/10/24 12:52:45;;;;;;;8.20;7.38;;;;;;;;;;5179129;27;20058;-78
2023/10/24 12:55:11;;;;;;;7.80;7.13;;;;;;;;;;5143291;27;20046;-79
2023/10/24 12:57:38;;;;;;;7.75;7.00;;;;;;;;;;5177594;27;20449;-79
2023/10/24 13:00:04;;;;;;;7.28;6.50;;;;;;;;;;5160622;27;20046;-79
2023/10/24 13:02:30;;;;;;;7.47;6.97;;;;;;;;;;5178671;27;20045;-79
2023/10/24 13:04:56;;;;;;;7.05;6.53;;;;;;;;;;5159955;27;20057;-79
2023/10/24 13:07:22;;;;;;;7.43;6.82;;;;;;;;;;5142950;27;20056;-79
2023/10/24 13:09:48;;;;;;;7.18;6.60;;;;;;;;;;5178551;27;20050;-79
2023/10/24 13:12:14;;;;;;;7.85;7.28;;;;;;;;;;5160083;27;20061;-79
2023/10/24 13:14:40;;;;;;;7.50;6.88;;;;;;;;;;5160353;27;20046;-79
2023/10/24 13:17:07;;;;;;;6.80;6.28;;;;;;;;;;5160758;27;20049;-79
2023/10/24 13:19:33;;;;;;;7.05;6.45;;;;;;;;;;5159972;27;20116;-79
2023/10/24 13:21:59;;;;;;;6.78;5.88;;;;;;;;;;5159455;27;20049;-79
2023/10/24 13:24:25;;;;;;;6.95;6.40;;;;;;;;;;5160762;27;20046;-79
2023/10/24 13:26:51;;;;;;;7.03;5.65;;;;;;;;;;5159854;27;20042;-80
2023/10/24 13:29:20;;;;;;;6.85;6.07;;;;;;;;;;5160336;27;20041;-79
2023/10/24 13:31:47;;;;;;;6.28;5.68;;;;;;;;;;5159780;27;20113;-79
2023/10/24 13:34:13;;;;;;;6.68;6.15;;;;;;;;;;5177992;27;20086;-79
2023/10/24 13:36:39;;;;;;;6.78;6.00;;;;;;;;;;5177969;27;20098;-79
2023/10/24 13:39:06;;;;;;;6.20;5.75;;;;;;;;;;5159601;27;20101;-79
2023/10/24 13:41:32;;;;;;;6.60;6.00;;;;;;;;;;5177859;27;20053;-79
2023/10/24 13:43:59;;;;;;;6.30;5.82;;;;;;;;;;5159461;27;20056;-79
2023/10/24 13:46:28;;;;;;;6.55;5.97;;;;;;;;;;5159272;27;20053;-80
2023/10/24 13:48:56;;;;;;;6.38;5.97;;;;;;;;;;5143045;27;20049;-79
2023/10/24 13:51:22;;;;;;;5.97;5.45;;;;;;;;;;5141938;27;20099;-80
2023/10/24 13:53:48;;;;;;;5.32;5.03;;;;;;;;;;5141786;27;20054;-80
2023/10/24 13:56:15;;;;;;;6.38;5.95;;;;;;;;;;5158977;27;20493;-80
2023/10/24 13:58:41;;;;;;;6.30;5.60;;;;;;;;;;5159310;27;20089;-79
2023/10/24 14:01:07;;;;;;;5.93;5.57;;;;;;;;;;5177535;27;20050;-79
2023/10/24 14:03:35;;;;;;;5.78;5.35;;;;;;;;;;5159161;27;20065;-79
2023/10/24 14:06:01;;;;;;;6.10;5.70;;;;;;;;;;5160075;27;20077;-80
2023/10/24 14:08:27;;;;;;;7.38;6.88;;;;;;;;;;5158597;27;20342;-80
2023/10/24 14:10:54;;;;;;;6.75;6.18;;;;;;;;;;5177123;27;20038;-80
2023/10/24 14:13:20;;;;;;;7.78;7.00;;;;;;;;;;5158679;27;20049;-80
2023/10/24 14:15:46;;;;;;;8.02;7.25;;;;;;;;;;5177615;27;20046;-79
2023/10/24 14:18:13;;;;;;;8.15;7.55;;;;;;;;;;5141572;27;20046;-80
2023/10/24 14:20:39;;;;;;;8.57;7.82;;;;;;;;;;5141406;27;20050;-79
2023/10/24 14:23:06;;;;;;;8.40;7.80;;;;;;;;;;5158945;27;20391;-80
2023/10/24 14:25:32;;;;;;;9.00;8.27;;;;;;;;;;5158713;27;20049;-79
2023/10/24 14:27:58;;;;;;;11.05;8.13;;;;;;;;;;5177201;27;20367;-80
2023/10/24 14:30:24;;;;;;;9.15;7.82;;;;;;;;;;5158306;27;20050;-79